Terminal Aerodrome Forecast
Issued by NWS

Home | Current Version | Previous Version | Text Only | Print | Product List | Glossary On
Versions: 1 2 3 4 5 6 7 8 9 10 11 12 13 14 15 16 17
320
FTUS46 KMTR 281729
TAFSTS
TAF
KSTS 281729Z 2818/2918 00000KT P6SM SCT010
     FM281900 17009KT P6SM SKC
     FM290400 15004KT P6SM SKC
     FM290600 16003KT P6SM BKN008
     FM290800 VRB03KT P6SM OVC005
     FM291200 00000KT 2SM BR OVC004=

USA.gov is the U.S. government's official web portal to all federal, state and local government web resources and services.